Baudette International Airport
KBDE : now visible

Airfield :











YOU CAN JOIN US ON...

 
LOGIN :

Register | Disclaimer

   EN    FR    IT 

 









Legend :    VFR   Marginal VFR   IFR   Intensive IFR   Very Intensive IFR
Visi :
Ceiling :
>= 8 km
>= 3000ft
5 to 8 km
1000 to 3000 ft
1500m to 5 km
500 to 1000 ft
800 to 1500m
200 to 500 ft
< 800m
< 200 ft
Symbols :   Thunderstorms  Fog  Heavy snow  Heavy precipitations  Wind > 20 kt






- Airport Elevation : 1086 ft


KBDE - Baudette International

CURRENT METAR :
  • 260830Z AUTO 21008KT 10SM BKN012 BKN090 M02/M04 A2969 RMK AO2 T10221039

EXPIRED METARs :
  • 260753Z AUTO 19008KT 10SM FEW011 M03/M04 A2968 RMK AO2 SLP066 T10281039
  • 260653Z AUTO 18008KT 9SM SCT010 M03/M04 A2969 RMK AO2 SLP071 T10281039
  • 260603Z AUTO 18008KT 10SM BKN010 M02/M03 A2971 RMK AO2 T10221033
  • 260548Z AUTO 19008KT 10SM BKN009 M02/M03 A2972 RMK AO2 SLP080 T10221033 11022 21022 410111044 53002

TAF N/A
KZMP FIR / North America



MET'MAP, your aeronautical weather chart ! - Copyright ORBIFLY December 2007 - Disclaimer

ORBIFLY MET'MAP TEAM :

Programming & Development : Alexandra Zaïnal
Concept & original design : Baudouin d'Aumeries
Assistance for programming : Marc-Olivier Méhu
Technical & hardware support : Manuel Goepfert

Contact : metmap@orbifly.com




SOURCES & CREDITS :

   NOAA       Earth
Advisory